Time;durP1;ratioP1;P1;durP2;ratioP2;P2;SDS_P1;SDS_P2;PMS_P1;PMS_P2;Temp;Humidity;BMP_temperature;BMP_pressure;BME280_temperature;BME280_humidity;BME280_pressure;Samples;Min_cycle;Max_cycle;Signal;HPM_P1;HPM_P2
2022/09/24 00:01:23;;;;;;;15.35;8.60;;;16.60;78.30;;;;;;5007070;28;20099;-81
2022/09/24 00:03:52;;;;;;;15.57;9.63;;;16.60;78.40;;;;;;5035525;28;20033;-82
2022/09/24 00:06:18;;;;;;;15.18;8.52;;;16.60;78.40;;;;;;5037177;28;20025;-82
2022/09/24 00:08:49;;;;;;;15.63;9.48;;;16.60;78.10;;;;;;5003643;28;20030;-81
2022/09/24 00:11:16;;;;;;;16.77;8.77;;;16.50;78.00;;;;;;5026595;28;20026;-81
2022/09/24 00:13:41;;;;;;;17.05;9.23;;;16.50;78.30;;;;;;5015820;28;20482;-82
2022/09/24 00:16:12;;;;;;;17.63;10.15;;;16.50;78.00;;;;;;4995918;28;20044;-81
2022/09/24 00:18:39;;;;;;;16.73;10.32;;;16.40;78.20;;;;;;4996280;28;20121;-81
2022/09/24 00:21:36;;;;;;;17.25;9.82;;;16.40;78.20;;;;;;4996224;28;20023;-81
2022/09/24 00:24:07;;;;;;;18.27;9.40;;;16.30;78.50;;;;;;4995850;28;20069;-81
2022/09/24 00:26:48;;;;;;;16.02;8.95;;;16.30;78.50;;;;;;4994901;28;20105;-81
2022/09/24 00:29:20;;;;;;;16.90;8.98;;;16.30;78.40;;;;;;4996781;28;20035;-81
2022/09/24 00:31:47;;;;;;;16.17;8.80;;;16.30;78.50;;;;;;5010995;28;20433;-81
2022/09/24 00:34:13;;;;;;;17.00;8.90;;;16.30;78.20;;;;;;4995829;28;20027;-82
2022/09/24 00:36:38;;;;;;;15.55;8.60;;;16.30;78.60;;;;;;4996066;28;20034;-81
2022/09/24 00:39:05;;;;;;;12.63;8.18;;;16.30;78.70;;;;;;4997670;28;20426;-81
2022/09/24 00:41:33;;;;;;;14.52;7.80;;;16.30;79.00;;;;;;4996376;28;20027;-82
2022/09/24 00:44:38;;;;;;;13.13;7.72;;;16.30;79.10;;;;;;4996075;28;20040;-81
2022/09/24 00:47:03;;;;;;;10.32;6.85;;;16.40;79.10;;;;;;5010436;28;20828;-82
2022/09/24 00:49:29;;;;;;;13.90;7.30;;;16.50;78.70;;;;;;4978153;28;20097;-81
2022/09/24 00:51:55;;;;;;;14.52;7.50;;;16.50;78.90;;;;;;5001954;28;20061;-81
2022/09/24 00:54:27;;;;;;;13.35;6.47;;;16.50;79.30;;;;;;5015359;28;20081;-82
2022/09/24 00:56:54;;;;;;;12.73;6.93;;;16.50;79.10;;;;;;4995800;28;20053;-82
2022/09/24 00:59:22;;;;;;;12.90;6.68;;;16.60;79.30;;;;;;4995760;28;20113;-81
2022/09/24 01:01:50;;;;;;;14.43;6.93;;;16.60;79.30;;;;;;5012495;28;20029;-81
2022/09/24 01:04:21;;;;;;;15.38;7.25;;;16.60;79.10;;;;;;4995646;28;20035;-81
2022/09/24 01:06:50;;;;;;;15.10;6.93;;;16.60;79.40;;;;;;4996813;28;20696;-81
2022/09/24 01:09:18;;;;;;;13.20;7.00;;;16.60;79.30;;;;;;5000328;28;20478;-82
2022/09/24 01:11:50;;;;;;;14.43;7.18;;;16.60;79.20;;;;;;5016800;28;20276;-81
2022/09/24 01:14:42;;;;;;;13.95;7.03;;;16.60;79.40;;;;;;5019955;28;20030;-81
2022/09/24 01:17:32;;;;;;;18.35;7.22;;;16.60;79.70;;;;;;5034289;28;20034;-81
2022/09/24 01:20:17;;;;;;;12.05;6.18;;;16.60;79.40;;;;;;5003796;28;20113;-81
2022/09/24 01:23:21;;;;;;;14.23;6.55;;;16.60;79.80;;;;;;5014986;28;20526;-81
2022/09/24 01:26:01;;;;;;;10.65;6.80;;;16.60;79.30;;;;;;4987997;28;20041;-81
2022/09/24 01:28:27;;;;;;;11.65;6.28;;;16.60;78.80;;;;;;4998816;28;20072;-81
2022/09/24 01:31:01;;;;;;;13.50;6.60;;;16.60;79.10;;;;;;5015678;28;20026;-81
2022/09/24 01:33:30;;;;;;;11.90;6.95;;;16.60;79.20;;;;;;4999216;28;20022;-81
2022/09/24 01:36:03;;;;;;;11.73;6.67;;;16.70;79.20;;;;;;4999160;28;20022;-81
2022/09/24 01:38:33;;;;;;;11.95;5.90;;;16.60;79.30;;;;;;4999385;28;20022;-81
2022/09/24 01:41:07;;;;;;;13.57;6.65;;;16.60;79.40;;;;;;4999385;28;20375;-81
2022/09/24 01:43:33;;;;;;;11.40;6.15;;;16.60;79.20;;;;;;4999673;28;20022;-81
2022/09/24 01:46:04;;;;;;;12.45;6.85;;;16.60;79.60;;;;;;5017282;28;20058;-82
2022/09/24 01:48:31;;;;;;;13.35;6.88;;;16.50;79.80;;;;;;5027027;28;20505;-81
2022/09/24 01:51:03;;;;;;;16.13;6.93;;;16.60;80.00;;;;;;5014017;28;20033;-81
2022/09/24 01:53:36;;;;;;;13.30;6.35;;;16.60;79.90;;;;;;5006495;28;20441;-82
2022/09/24 01:56:09;;;;;;;15.05;6.97;;;16.60;79.70;;;;;;5033684;28;20041;-81
2022/09/24 01:59:00;;;;;;;13.93;7.30;;;16.60;80.00;;;;;;5019562;28;20440;-80
2022/09/24 02:01:36;;;;;;;13.27;7.90;;;16.60;79.90;;;;;;4996248;28;20027;-81
2022/09/24 02:04:13;;;;;;;12.75;7.03;;;16.60;79.90;;;;;;5013660;28;20022;-81
2022/09/24 02:06:59;;;;;;;12.48;6.55;;;16.50;80.30;;;;;;4998632;28;20073;-81
2022/09/24 02:09:32;;;;;;;17.42;8.02;;;16.50;80.20;;;;;;4998786;28;20109;-81
2022/09/24 02:12:10;;;;;;;12.57;6.78;;;16.50;80.20;;;;;;5018530;28;20041;-81
2022/09/24 02:14:43;;;;;;;10.13;6.28;;;16.60;80.10;;;;;;5017934;28;20026;-81
2022/09/24 02:17:10;;;;;;;14.52;6.88;;;16.50;80.10;;;;;;5010558;28;20140;-81
2022/09/24 02:19:38;;;;;;;12.90;6.45;;;16.60;80.20;;;;;;4996938;28;20104;-81
2022/09/24 02:22:06;;;;;;;13.18;7.50;;;16.60;80.10;;;;;;4998730;28;20594;-81
2022/09/24 02:24:43;;;;;;;13.32;6.07;;;16.60;80.30;;;;;;5013374;28;20030;-81
2022/09/24 02:27:09;;;;;;;13.18;5.85;;;16.60;80.40;;;;;;4999676;28;20117;-81
2022/09/24 02:29:35;;;;;;;12.38;6.45;;;16.60;80.20;;;;;;4996431;28;20113;-81
2022/09/24 02:32:03;;;;;;;11.70;5.93;;;16.60;79.90;;;;;;4998153;28;20117;-81
2022/09/24 02:34:37;;;;;;;13.23;6.43;;;16.60;80.10;;;;;;4998894;28;20030;-81
2022/09/24 02:37:06;;;;;;;11.98;5.72;;;16.60;80.00;;;;;;4996584;28;20553;-81
2022/09/24 02:39:32;;;;;;;11.93;6.28;;;16.60;80.30;;;;;;4998941;28;20126;-82
2022/09/24 02:41:59;;;;;;;11.57;6.32;;;16.60;79.90;;;;;;4996580;28;20061;-81
2022/09/24 02:44:25;;;;;;;12.23;5.90;;;16.60;79.90;;;;;;4998719;28;20411;-82
2022/09/24 02:46:51;;;;;;;12.30;6.47;;;16.50;80.10;;;;;;4998335;28;20034;-81
2022/09/24 02:49:19;;;;;;;9.98;6.43;;;16.60;80.20;;;;;;4997977;28;20540;-81
2022/09/24 02:51:45;;;;;;;10.98;6.57;;;16.60;80.00;;;;;;4998491;28;20018;-81
2022/09/24 02:54:11;;;;;;;13.48;6.50;;;16.50;80.10;;;;;;4997993;28;20048;-82
2022/09/24 02:56:36;;;;;;;14.20;5.90;;;16.60;80.00;;;;;;4997321;28;20026;-81
2022/09/24 02:59:03;;;;;;;12.23;6.15;;;16.50;79.80;;;;;;4997346;28;20032;-81
2022/09/24 03:01:30;;;;;;;14.88;5.78;;;16.50;79.90;;;;;;4998427;28;20505;-81
2022/09/24 03:03:57;;;;;;;12.00;5.75;;;16.50;79.90;;;;;;4997792;28;20022;-81
2022/09/24 03:06:27;;;;;;;11.93;6.18;;;16.50;79.80;;;;;;4995904;28;20049;-81
2022/09/24 03:08:53;;;;;;;12.15;6.00;;;16.50;79.80;;;;;;4998209;28;20073;-81
2022/09/24 03:11:22;;;;;;;11.90;5.18;;;16.50;79.50;;;;;;5005829;28;20034;-81
2022/09/24 03:13:49;;;;;;;10.23;6.00;;;16.50;79.70;;;;;;4998514;28;20023;-80
2022/09/24 03:16:16;;;;;;;10.40;5.43;;;16.50;79.90;;;;;;4996696;28;20031;-81
2022/09/24 03:18:42;;;;;;;10.65;6.80;;;16.40;79.90;;;;;;4998951;28;20617;-81
2022/09/24 03:21:11;;;;;;;9.45;5.15;;;16.40;80.00;;;;;;4998740;28;20413;-81
2022/09/24 03:23:37;;;;;;;12.33;6.10;;;16.40;79.90;;;;;;5016059;28;20026;-81
2022/09/24 03:26:03;;;;;;;11.38;5.43;;;16.40;80.00;;;;;;5006799;28;20355;-81
2022/09/24 03:28:29;;;;;;;12.35;5.28;;;16.40;80.00;;;;;;4996871;28;20030;-81
2022/09/24 03:31:01;;;;;;;10.95;5.50;;;16.30;79.70;;;;;;4997423;28;20478;-81
2022/09/24 03:33:28;;;;;;;9.95;5.07;;;16.30;80.00;;;;;;4997152;28;20072;-81
2022/09/24 03:35:58;;;;;;;10.73;5.97;;;16.30;80.00;;;;;;4997724;28;20458;-81
2022/09/24 03:38:24;;;;;;;;;;;16.30;80.00;;;;;;4979582;28;20030;-81
2022/09/24 03:40:52;;;;;;;10.50;5.75;;;16.30;80.10;;;;;;4997204;28;20483;-80
2022/09/24 03:43:18;;;;;;;9.73;5.30;;;16.30;79.80;;;;;;4997709;28;20022;-80
2022/09/24 03:45:44;;;;;;;12.10;5.43;;;16.30;79.80;;;;;;5011721;28;20061;-80
2022/09/24 03:48:10;;;;;;;11.82;5.57;;;16.30;79.90;;;;;;4998235;28;20157;-81
2022/09/24 03:50:36;;;;;;;8.52;5.00;;;16.30;79.80;;;;;;4996473;28;20447;-81
2022/09/24 03:53:02;;;;;;;9.13;5.15;;;16.30;79.70;;;;;;4997167;28;20027;-80
2022/09/24 03:55:28;;;;;;;12.50;5.75;;;16.20;80.00;;;;;;4996434;28;20058;-81
2022/09/24 03:57:56;;;;;;;9.30;4.95;;;16.20;79.90;;;;;;4996737;28;20026;-79
2022/09/24 04:00:26;;;;;;;10.30;5.20;;;16.20;80.00;;;;;;4996767;28;20038;-80
2022/09/24 04:02:51;;;;;;;11.32;5.55;;;16.20;80.20;;;;;;4996272;28;20022;-80
2022/09/24 04:05:17;;;;;;;9.30;5.43;;;16.20;80.00;;;;;;5012968;28;20038;-80
2022/09/24 04:07:44;;;;;;;11.90;5.57;;;16.20;80.20;;;;;;4996538;28;20030;-80
2022/09/24 04:10:10;;;;;;;11.27;5.35;;;16.20;80.00;;;;;;5001725;28;20038;-80
2022/09/24 04:12:36;;;;;;;9.02;4.80;;;16.20;79.90;;;;;;5015576;28;20018;-80
2022/09/24 04:15:02;;;;;;;8.50;5.03;;;16.20;80.10;;;;;;4998660;28;20037;-80
2022/09/24 04:17:30;;;;;;;9.23;5.45;;;16.20;80.00;;;;;;5007767;28;20034;-80
2022/09/24 04:19:59;;;;;;;9.65;5.57;;;16.10;80.00;;;;;;4996150;28;20114;-80
2022/09/24 04:22:26;;;;;;;8.68;4.78;;;16.20;79.90;;;;;;5012044;28;20034;-80
2022/09/24 04:24:52;;;;;;;8.93;4.63;;;16.20;79.60;;;;;;4994884;28;20030;-80
2022/09/24 04:27:19;;;;;;;9.30;4.55;;;16.10;80.00;;;;;;4997406;28;20544;-80
2022/09/24 04:29:45;;;;;;;7.85;4.32;;;16.20;79.60;;;;;;5011126;28;20121;-81
2022/09/24 04:32:13;;;;;;;11.55;5.97;;;16.20;79.60;;;;;;4996011;28;20058;-81
2022/09/24 04:34:38;;;;;;;9.48;4.70;;;16.20;79.50;;;;;;4994321;28;20066;-81
2022/09/24 04:37:04;;;;;;;12.55;5.03;;;16.20;79.30;;;;;;4995809;28;20022;-80
2022/09/24 04:39:30;;;;;;;8.73;4.78;;;16.20;79.50;;;;;;5012093;28;20033;-80
2022/09/24 04:41:56;;;;;;;11.85;5.80;;;16.20;79.40;;;;;;5012517;28;20050;-80
2022/09/24 04:44:22;;;;;;;10.50;5.13;;;16.20;79.70;;;;;;5000717;28;20061;-80
2022/09/24 04:46:48;;;;;;;9.60;4.70;;;16.20;79.80;;;;;;4999402;28;20034;-80
2022/09/24 04:49:14;;;;;;;11.77;5.35;;;16.20;79.70;;;;;;4999905;28;20577;-80
2022/09/24 04:51:40;;;;;;;11.60;5.78;;;16.20;79.70;;;;;;5015292;28;20081;-80
2022/09/24 04:54:08;;;;;;;9.50;5.25;;;16.20;79.50;;;;;;5014809;28;20443;-80
2022/09/24 04:56:34;;;;;;;8.43;4.60;;;16.10;79.50;;;;;;5015772;28;20114;-80
2022/09/24 04:58:59;;;;;;;8.68;4.57;;;16.10;79.50;;;;;;5019281;28;20049;-80
2022/09/24 05:01:25;;;;;;;11.82;5.40;;;16.20;79.50;;;;;;5000465;28;20022;-81
2022/09/24 05:03:52;;;;;;;7.10;4.55;;;16.20;79.50;;;;;;5022145;28;20029;-80
2022/09/24 05:06:17;;;;;;;8.23;4.78;;;16.20;79.10;;;;;;5020656;28;20481;-81
2022/09/24 05:08:43;;;;;;;12.60;4.80;;;16.10;79.40;;;;;;5016480;28;20038;-81
2022/09/24 05:11:09;;;;;;;10.73;5.13;;;16.10;79.60;;;;;;5000944;28;20171;-78
2022/09/24 05:13:34;;;;;;;9.45;4.45;;;16.10;79.90;;;;;;5018256;28;20585;-76
2022/09/24 05:16:01;;;;;;;8.82;4.93;;;16.00;80.00;;;;;;5019133;28;20099;-75
2022/09/24 05:18:27;;;;;;;10.73;5.18;;;16.10;79.80;;;;;;5018981;28;20037;-76
2022/09/24 05:20:53;;;;;;;8.68;4.95;;;16.10;79.70;;;;;;5016214;28;20033;-76
2022/09/24 05:23:21;;;;;;;8.90;4.68;;;16.20;79.40;;;;;;5019241;28;20053;-77
2022/09/24 05:28:47;;;;;;;9.43;4.75;;;16.10;79.20;;;;;;4996359;28;20022;-76
2022/09/24 05:31:13;;;;;;;8.85;4.80;;;16.10;79.30;;;;;;4998758;28;20084;-77
2022/09/24 05:33:39;;;;;;;8.27;4.75;;;16.10;79.50;;;;;;4999527;28;20065;-75
2022/09/24 05:36:05;;;;;;;12.23;4.78;;;16.10;79.40;;;;;;5000217;28;20038;-79
2022/09/24 05:38:31;;;;;;;9.18;5.38;;;16.00;79.50;;;;;;5018426;28;20061;-80
2022/09/24 05:40:57;;;;;;;6.90;4.82;;;16.10;79.40;;;;;;5017562;28;20022;-78
2022/09/24 05:43:26;;;;;;;10.02;5.20;;;16.00;79.20;;;;;;5008468;28;20609;-78
2022/09/24 05:46:04;;;;;;;;;;;;;;;;;;;;;
2022/09/24 05:48:30;;;;;;;8.63;5.30;;;16.00;79.50;;;;;;4998591;28;20372;-78
2022/09/24 05:50:55;;;;;;;7.95;5.35;;;16.00;79.60;;;;;;5010661;28;20088;-82
2022/09/24 05:53:22;;;;;;;7.53;4.80;;;15.90;79.50;;;;;;4999350;28;20467;-80
2022/09/24 05:55:48;;;;;;;8.52;5.00;;;15.90;79.60;;;;;;5000724;28;20525;-81
2022/09/24 05:58:13;;;;;;;8.20;5.00;;;15.90;79.60;;;;;;5032655;28;20081;-85
2022/09/24 06:00:39;;;;;;;7.35;4.68;;;15.90;79.40;;;;;;5017889;28;20030;-79
2022/09/24 06:03:22;;;;;;;8.90;3.92;;;15.90;79.40;;;;;;5015358;28;20099;-81
2022/09/24 06:05:49;;;;;;;6.57;4.15;;;16.00;79.30;;;;;;5029596;28;20395;-80
2022/09/24 06:08:16;;;;;;;9.55;4.28;;;15.90;79.10;;;;;;5015775;28;20026;-80
2022/09/24 06:10:44;;;;;;;6.28;4.20;;;16.00;79.00;;;;;;4995898;28;20026;-81
2022/09/24 06:13:10;;;;;;;6.45;4.13;;;16.00;79.00;;;;;;4996625;28;20038;-79
2022/09/24 06:15:37;;;;;;;7.30;4.75;;;16.00;78.70;;;;;;5012805;28;20517;-80
2022/09/24 06:18:04;;;;;;;6.80;3.33;;;16.00;78.90;;;;;;5015318;28;20022;-80
2022/09/24 06:20:33;;;;;;;9.52;3.85;;;15.90;79.10;;;;;;5016281;28;20513;-79
2022/09/24 06:22:59;;;;;;;5.57;3.60;;;16.00;79.30;;;;;;4999167;28;20026;-80
2022/09/24 06:25:25;;;;;;;7.05;4.03;;;16.00;79.10;;;;;;5012937;28;20120;-78
2022/09/24 06:27:59;;;;;;;9.63;4.75;;;16.00;79.20;;;;;;4997964;28;20098;-80
2022/09/24 06:30:26;;;;;;;7.15;3.70;;;16.00;79.10;;;;;;4995104;28;20057;-82
2022/09/24 06:32:53;;;;;;;7.38;4.07;;;16.00;79.10;;;;;;4996893;28;20057;-80
2022/09/24 06:35:19;;;;;;;7.90;4.18;;;16.00;78.80;;;;;;5015682;28;20032;-81
2022/09/24 06:37:46;;;;;;;7.57;4.40;;;16.00;78.90;;;;;;5015811;28;20065;-80
2022/09/24 06:40:12;;;;;;;7.47;4.45;;;16.00;78.70;;;;;;5013945;28;20014;-79
2022/09/24 06:42:38;;;;;;;7.78;4.18;;;16.00;78.90;;;;;;5015053;28;20500;-80
2022/09/24 06:45:04;;;;;;;6.15;4.28;;;16.00;79.00;;;;;;5015763;28;20073;-86
2022/09/24 06:47:29;;;;;;;7.45;4.30;;;16.10;79.10;;;;;;5016468;28;20510;-80
2022/09/24 06:49:55;;;;;;;6.15;4.10;;;16.10;78.90;;;;;;5014982;28;20034;-79
2022/09/24 06:52:22;;;;;;;7.07;3.47;;;16.20;78.60;;;;;;4998623;28;20026;-84
2022/09/24 06:54:47;;;;;;;10.05;4.53;;;16.20;78.60;;;;;;4996287;28;20029;-83
2022/09/24 06:57:14;;;;;;;6.18;4.03;;;16.30;78.70;;;;;;5014692;28;20032;-83
2022/09/24 07:00:01;;;;;;;5.55;3.75;;;16.30;78.50;;;;;;4997421;28;20099;-88
2022/09/24 07:02:29;;;;;;;6.13;3.95;;;16.30;78.50;;;;;;5010768;28;20030;-85
2022/09/24 07:04:54;;;;;;;6.22;4.15;;;16.30;78.40;;;;;;4987226;28;20132;-89
2022/09/24 07:07:30;;;;;;;8.38;3.90;;;16.30;78.30;;;;;;4999878;28;20064;-89
2022/09/24 07:09:56;;;;;;;7.22;4.32;;;16.40;78.20;;;;;;5031890;28;20069;-91
2022/09/24 07:12:22;;;;;;;8.00;4.53;;;16.40;78.20;;;;;;4998232;28;20025;-91
2022/09/24 07:14:48;;;;;;;5.22;3.85;;;16.50;78.00;;;;;;4996073;28;20030;-90
2022/09/24 07:17:14;;;;;;;5.60;3.92;;;16.50;78.00;;;;;;4989766;28;20402;-81
2022/09/24 07:19:40;;;;;;;6.55;3.83;;;16.50;77.90;;;;;;5008980;28;20113;-85
2022/09/24 07:22:07;;;;;;;8.65;4.18;;;16.50;78.00;;;;;;4996832;28;20030;-84
2022/09/24 07:24:33;;;;;;;5.80;3.63;;;16.60;77.80;;;;;;4996366;28;20030;-84
2022/09/24 07:26:58;;;;;;;4.68;3.17;;;16.70;77.50;;;;;;5014928;28;20018;-86
2022/09/24 07:29:24;;;;;;;9.15;4.30;;;16.70;77.60;;;;;;4996501;28;20041;-84
2022/09/24 07:31:50;;;;;;;9.10;4.00;;;16.70;77.30;;;;;;5014684;28;20018;-84
2022/09/24 07:34:16;;;;;;;6.32;3.97;;;16.70;77.40;;;;;;5014639;28;20055;-82
2022/09/24 07:36:41;;;;;;;7.60;3.50;;;16.70;77.60;;;;;;5010011;28;20034;-81
2022/09/24 07:39:08;;;;;;;8.25;4.18;;;16.70;77.30;;;;;;5014648;28;20038;-83
2022/09/24 07:41:33;;;;;;;6.00;3.95;;;16.70;77.60;;;;;;5013968;28;20022;-82
2022/09/24 07:43:59;;;;;;;7.57;4.50;;;16.60;77.70;;;;;;5001923;28;20034;-82
2022/09/24 07:46:25;;;;;;;8.85;4.38;;;16.60;77.70;;;;;;5025331;28;20485;-81
2022/09/24 07:48:55;;;;;;;7.72;3.80;;;16.60;77.80;;;;;;5013003;28;20018;-83
2022/09/24 07:51:26;;;;;;;10.70;4.70;;;16.60;77.60;;;;;;5007535;28;20044;-81
2022/09/24 07:53:52;;;;;;;8.80;4.32;;;16.60;78.00;;;;;;5006724;28;20061;-82
2022/09/24 07:56:18;;;;;;;6.10;3.95;;;16.70;77.70;;;;;;5009048;28;20030;-81
2022/09/24 07:58:47;;;;;;;6.78;3.63;;;16.70;77.60;;;;;;5010400;28;20052;-81
2022/09/24 08:01:13;;;;;;;6.45;4.07;;;16.80;77.50;;;;;;5011031;28;20026;-82
2022/09/24 08:03:39;;;;;;;6.80;3.67;;;16.80;77.20;;;;;;4994906;28;20041;-85
2022/09/24 08:06:05;;;;;;;7.20;3.83;;;16.80;77.20;;;;;;5025986;28;20099;-80
2022/09/24 08:08:31;;;;;;;7.10;4.10;;;16.90;77.00;;;;;;5030281;28;20038;-80
2022/09/24 08:10:56;;;;;;;6.03;3.45;;;16.90;77.30;;;;;;5027384;28;20026;-82
2022/09/24 08:13:23;;;;;;;7.47;4.00;;;17.00;77.20;;;;;;5023092;28;20400;-89
2022/09/24 08:16:00;;;;;;;5.75;3.35;;;17.00;77.10;;;;;;4997508;28;20036;-83
2022/09/24 08:18:28;;;;;;;6.45;3.30;;;17.10;76.80;;;;;;4999170;28;20029;-83
2022/09/24 08:20:54;;;;;;;6.70;4.25;;;17.20;76.50;;;;;;5001943;28;20022;-83
2022/09/24 08:23:20;;;;;;;9.93;4.00;;;17.20;76.60;;;;;;5018017;28;20026;-83
2022/09/24 08:25:48;;;;;;;6.18;3.85;;;17.30;76.20;;;;;;5018133;28;20141;-83
2022/09/24 08:28:18;;;;;;;4.88;3.47;;;17.30;76.10;;;;;;5007693;28;20101;-83
2022/09/24 08:30:44;;;;;;;7.57;4.00;;;17.30;76.40;;;;;;5024784;28;20030;-83
2022/09/24 08:33:10;;;;;;;4.43;3.40;;;17.30;76.40;;;;;;5023670;28;20033;-83
2022/09/24 08:35:38;;;;;;;5.00;3.70;;;17.30;76.40;;;;;;5017152;28;20034;-83
2022/09/24 08:38:04;;;;;;;4.88;3.45;;;17.30;76.50;;;;;;4985163;28;20041;-81
2022/09/24 08:40:36;;;;;;;4.25;3.13;;;17.30;76.70;;;;;;5029526;28;20022;-82
2022/09/24 08:43:32;;;;;;;4.72;3.20;;;17.40;76.40;;;;;;5017067;28;20021;-84
2022/09/24 08:48:52;;;;;;;4.75;3.25;;;17.40;76.40;;;;;;5012590;28;20037;-84
2022/09/24 08:51:21;;;;;;;4.68;3.05;;;17.40;76.20;;;;;;5022329;28;20026;-83
2022/09/24 08:54:03;;;;;;;9.57;3.38;;;17.30;76.30;;;;;;5029893;28;20034;-83
2022/09/24 08:56:33;;;;;;;9.77;3.45;;;17.30;75.60;;;;;;5022896;28;20017;-83
2022/09/24 08:58:59;;;;;;;4.65;2.90;;;17.30;75.70;;;;;;5025326;28;20421;-84
2022/09/24 09:01:38;;;;;;;5.10;3.20;;;17.30;75.80;;;;;;4999983;28;20021;-83
2022/09/24 09:04:27;;;;;;;5.38;3.05;;;17.50;75.40;;;;;;5001899;28;20030;-84
2022/09/24 09:07:01;;;;;;;3.85;3.17;;;17.90;74.70;;;;;;5013098;28;20624;-82
2022/09/24 09:09:43;;;;;;;4.63;2.58;;;18.30;73.80;;;;;;5005427;28;20410;-83
2022/09/24 09:12:22;;;;;;;3.38;2.42;;;18.20;73.50;;;;;;5005559;28;20026;-83
2022/09/24 09:14:57;;;;;;;6.75;2.75;;;18.10;73.50;;;;;;4997297;28;20524;-83
2022/09/24 09:17:41;;;;;;;3.22;2.08;;;18.10;73.70;;;;;;5014917;28;20033;-84
2022/09/24 09:20:25;;;;;;;3.28;1.70;;;17.90;73.10;;;;;;5005604;28;20025;-84
2022/09/24 09:22:52;;;;;;;7.18;2.13;;;18.00;73.80;;;;;;5026817;28;21329;-81
2022/09/24 09:25:29;;;;;;;4.88;1.70;;;18.00;73.00;;;;;;5018680;28;20024;-84
2022/09/24 09:28:01;;;;;;;5.22;1.80;;;18.00;73.00;;;;;;5016200;28;20026;-81
2022/09/24 09:30:36;;;;;;;2.83;1.52;;;18.10;72.50;;;;;;5001436;28;20037;-83
2022/09/24 09:33:24;;;;;;;4.88;1.73;;;18.10;71.60;;;;;;5014444;28;20049;-83
2022/09/24 09:36:11;;;;;;;5.35;1.83;;;18.00;72.00;;;;;;5013540;28;20542;-84
2022/09/24 09:38:41;;;;;;;7.57;2.00;;;18.10;71.70;;;;;;5013163;28;20038;-78
2022/09/24 09:41:16;;;;;;;3.88;1.65;;;18.00;71.50;;;;;;4998851;28;20034;-82
2022/09/24 09:43:42;;;;;;;5.70;1.75;;;18.10;71.80;;;;;;4991965;28;20030;-79
2022/09/24 09:46:24;;;;;;;2.65;1.40;;;18.10;70.90;;;;;;5013842;28;20101;-84
2022/09/24 09:48:55;;;;;;;2.75;1.40;;;18.20;70.80;;;;;;4998795;28;20026;-83
2022/09/24 09:51:24;;;;;;;3.63;1.70;;;18.20;70.30;;;;;;5013991;28;20520;-86
2022/09/24 09:54:01;;;;;;;4.35;1.65;;;18.20;69.40;;;;;;5005703;28;20017;-83
2022/09/24 09:56:57;;;;;;;4.22;1.42;;;18.20;69.10;;;;;;5014277;28;20717;-84
2022/09/24 09:59:26;;;;;;;2.13;1.38;;;18.20;69.40;;;;;;5006954;28;20053;-79
2022/09/24 10:01:54;;;;;;;7.38;1.42;;;18.30;69.00;;;;;;5018007;28;20064;-81
2022/09/24 10:04:38;;;;;;;4.18;1.60;;;18.30;69.20;;;;;;5016038;28;20017;-82
2022/09/24 10:07:13;;;;;;;5.75;1.90;;;18.30;68.70;;;;;;5013206;28;20108;-81
2022/09/24 10:09:41;;;;;;;3.40;1.30;;;18.40;68.90;;;;;;4999007;28;20022;-77
2022/09/24 10:12:07;;;;;;;5.00;1.30;;;18.50;68.50;;;;;;5003329;28;20624;-77
2022/09/24 10:14:33;;;;;;;5.53;1.30;;;18.50;67.80;;;;;;4996689;28;20026;-76
2022/09/24 10:17:04;;;;;;;4.45;1.25;;;18.60;67.80;;;;;;5010852;28;20028;-77
2022/09/24 10:19:33;;;;;;;3.70;1.70;;;18.80;67.60;;;;;;4998322;28;20034;-84
2022/09/24 10:22:23;;;;;;;1.95;1.50;;;18.90;68.10;;;;;;5000223;28;20017;-81
2022/09/24 10:24:50;;;;;;;6.73;1.40;;;19.10;67.20;;;;;;5016464;28;20043;-78
2022/09/24 10:27:28;;;;;;;4.03;1.15;;;19.10;66.90;;;;;;5017527;28;20810;-82
2022/09/24 10:32:40;;;;;;;6.15;1.35;;;19.10;64.40;;;;;;5016470;28;20104;-82
2022/09/24 10:35:34;;;;;;;4.22;1.40;;;19.00;64.90;;;;;;5017449;28;20409;-79
2022/09/24 10:38:14;;;;;;;6.35;1.63;;;19.10;64.30;;;;;;5013461;28;20038;-79
2022/09/24 10:40:40;;;;;;;14.48;4.63;;;19.00;63.90;;;;;;4997923;28;20162;-77
2022/09/24 10:43:06;;;;;;;2.75;1.20;;;18.90;63.30;;;;;;5010969;28;20125;-76
2022/09/24 10:45:41;;;;;;;2.85;1.02;;;18.80;63.80;;;;;;5004023;28;20045;-79
2022/09/24 10:48:18;;;;;;;2.05;0.85;;;18.80;63.90;;;;;;5021931;28;20059;-80
2022/09/24 10:51:10;;;;;;;3.15;0.80;;;18.80;63.20;;;;;;5014581;28;20025;-80
2022/09/24 10:53:47;;;;;;;5.43;1.15;;;18.90;62.80;;;;;;5004856;28;20054;-80
2022/09/24 10:56:29;;;;;;;5.45;1.05;;;19.00;63.20;;;;;;5016781;28;20057;-78
2022/09/24 10:59:23;;;;;;;4.07;1.00;;;18.80;61.80;;;;;;4998369;28;20430;-78
2022/09/24 11:01:54;;;;;;;4.85;1.85;;;18.80;61.90;;;;;;4996881;28;20031;-79
2022/09/24 11:04:20;;;;;;;3.95;1.73;;;18.70;62.60;;;;;;4996398;28;20034;-77
2022/09/24 11:07:09;;;;;;;2.17;0.90;;;18.70;62.30;;;;;;5002861;28;20026;-79
2022/09/24 11:09:35;;;;;;;1.95;0.70;;;18.70;61.70;;;;;;4996763;28;20030;-81
2022/09/24 11:12:24;;;;;;;3.08;0.90;;;18.80;62.20;;;;;;5016774;28;20033;-77
2022/09/24 11:15:01;;;;;;;3.45;0.90;;;18.80;61.70;;;;;;5016341;28;20033;-79
2022/09/24 11:17:53;;;;;;;3.45;0.95;;;19.00;60.20;;;;;;5012992;28;20065;-80
2022/09/24 11:20:36;;;;;;;5.95;1.02;;;19.10;57.70;;;;;;5011454;28;20034;-77
2022/09/24 11:23:24;;;;;;;4.22;0.98;;;19.20;56.70;;;;;;5012038;28;20037;-80
2022/09/24 11:25:59;;;;;;;2.53;0.85;;;19.30;55.50;;;;;;4990491;28;20117;-75
2022/09/24 11:28:56;;;;;;;3.72;1.10;;;19.20;55.60;;;;;;5012791;28;20084;-75
2022/09/24 11:32:14;;;;;;;1.27;0.70;;;19.20;55.60;;;;;;5013398;28;20053;-78
2022/09/24 11:34:59;;;;;;;2.28;0.73;;;19.20;56.80;;;;;;4999064;28;20046;-78
2022/09/24 11:37:25;;;;;;;3.42;0.80;;;19.30;57.10;;;;;;5009215;28;20041;-78
2022/09/24 11:39:51;;;;;;;1.17;0.60;;;19.50;56.60;;;;;;4996705;28;20113;-78
2022/09/24 11:42:32;;;;;;;1.45;0.73;;;19.60;57.10;;;;;;5011515;28;20034;-78
2022/09/24 11:45:12;;;;;;;1.77;0.60;;;19.70;55.10;;;;;;4995886;28;20045;-78
2022/09/24 11:48:07;;;;;;;1.23;0.73;;;19.60;54.40;;;;;;5018434;28;20030;-78
2022/09/24 11:50:36;;;;;;;1.70;0.55;;;19.50;54.60;;;;;;5004968;28;20022;-78
2022/09/24 11:53:10;;;;;;;3.65;0.70;;;19.40;53.80;;;;;;5013713;28;20030;-78
2022/09/24 11:55:43;;;;;;;2.17;0.60;;;19.40;53.10;;;;;;5014476;28;20094;-78
2022/09/24 11:58:15;;;;;;;3.67;0.80;;;19.40;54.00;;;;;;5011761;28;20018;-78
2022/09/24 12:00:52;;;;;;;2.47;1.00;;;19.50;53.50;;;;;;5012040;28;20075;-79
2022/09/24 12:03:50;;;;;;;1.38;0.70;;;19.60;53.30;;;;;;5019252;28;20018;-78
2022/09/24 12:06:26;;;;;;;5.32;0.90;;;19.70;52.70;;;;;;5009654;28;20386;-78
2022/09/24 12:09:11;;;;;;;2.28;0.85;;;19.80;52.20;;;;;;5016972;28;20034;-78
2022/09/24 12:11:46;;;;;;;1.08;0.70;;;19.80;52.40;;;;;;5010198;28;20581;-77
2022/09/24 12:14:30;;;;;;;3.97;1.05;;;19.90;51.20;;;;;;5007520;28;20037;-78
2022/09/24 12:17:01;;;;;;;2.70;0.57;;;20.00;49.50;;;;;;4996466;28;20456;-75
2022/09/24 12:19:47;;;;;;;2.28;0.90;;;20.00;50.00;;;;;;4995899;28;20036;-76
2022/09/24 12:22:15;;;;;;;1.67;0.77;;;20.00;50.50;;;;;;5012790;28;20595;-78
2022/09/24 12:24:57;;;;;;;2.50;0.80;;;20.00;50.50;;;;;;5014002;28;20037;-80
2022/09/24 12:27:36;;;;;;;3.55;0.85;;;20.00;50.20;;;;;;5012600;28;20108;-79
2022/09/24 12:33:02;;;;;;;2.63;0.73;;;20.20;49.70;;;;;;5009310;28;20037;-81
2022/09/24 12:36:03;;;;;;;2.22;0.60;;;20.20;48.90;;;;;;4993895;28;20037;-81
2022/09/24 12:38:33;;;;;;;2.65;0.60;;;20.30;49.90;;;;;;5011025;28;20025;-80
2022/09/24 12:41:07;;;;;;;3.33;0.80;;;20.30;49.60;;;;;;5004794;28;20038;-81
2022/09/24 12:43:44;;;;;;;3.78;0.80;;;20.30;47.90;;;;;;4999640;28;20029;-80
2022/09/24 12:46:21;;;;;;;1.83;0.70;;;20.40;49.00;;;;;;5010548;28;20050;-81
2022/09/24 12:48:48;;;;;;;2.63;0.68;;;20.40;47.90;;;;;;5000307;28;20033;-82
2022/09/24 12:51:15;;;;;;;1.38;0.75;;;20.40;48.40;;;;;;4994621;28;20092;-81
2022/09/24 12:53:53;;;;;;;4.22;0.90;;;20.40;47.80;;;;;;5015469;28;20075;-81
2022/09/24 12:56:24;;;;;;;4.35;1.05;;;20.50;47.90;;;;;;5014369;28;20116;-81
2022/09/24 12:58:50;;;;;;;1.92;0.90;;;20.50;47.80;;;;;;5012120;28;20026;-76
2022/09/24 13:01:22;;;;;;;1.13;0.60;;;20.50;48.80;;;;;;4997624;28;20033;-74
2022/09/24 13:04:00;;;;;;;1.83;0.73;;;20.70;48.80;;;;;;5016869;28;20030;-73
2022/09/24 13:06:33;;;;;;;2.13;0.70;;;20.70;49.10;;;;;;5017806;28;20026;-74
2022/09/24 13:08:59;;;;;;;2.05;0.77;;;20.80;50.00;;;;;;5001908;28;20026;-72
2022/09/24 13:11:31;;;;;;;3.08;0.82;;;20.90;49.10;;;;;;5002646;28;20041;-71
2022/09/24 13:14:12;;;;;;;1.90;0.95;;;20.90;47.50;;;;;;5006540;28;20080;-71
2022/09/24 13:16:40;;;;;;;1.40;0.77;;;21.00;46.60;;;;;;5002090;28;20038;-71
2022/09/24 13:19:26;;;;;;;1.50;0.68;;;21.00;48.10;;;;;;4997845;28;20026;-72